Etobicoke, Canada
Current Conditions -  °F | °C
As of 5:00 AM on Wednesday 22 Oct 2014 (Local Time) from CYYZ Reporting Station
Broken Clouds Broken Clouds  
Wind Chill: 31°   Ceiling: 4800
Heat Index: 39°   Visibility: 15mi
Dew Point: 34°   Wind: 14mph
Humidity: 81%   Direction: 360°N
Pressure: 30.21"   Gusts: NA
Location:  43.64°N, 79.57°W
Report Text: CYYZ 220900Z 36012KT 15SM BKN048 04/01 A3021 RMK SC6 SLP234
Loading
Personal Weather Stations






























Interactive Weather Map
Tropical Storm Tracking
New forecast layout! Learn more

10-Day Weather Forecast

Advertisements
Track Severe Weather on mobile